Chester Depot, Vermont
Current Conditions -  °F | °C
As of 6:54 AM on Sunday 23 Nov 2014 (Local Time) from KVSF Reporting Station
Overcast Overcast  
Wind Chill:   Ceiling: 2800
Heat Index:   Visibility: 9mi
Dew Point:   Wind: 0mph
Humidity: 96%   Direction: NA
Pressure: 30.06"   Gusts: NA
Location:  43.36°N, 72.57°W
Report Text: KVSF 231154Z AUTO 00000KT 9SM OVC028 04/03 A3006 RMK AO2 RAE06 SLP185 P0000 60002 70002 T00390033 10067 20033 53010
Loading
Personal Weather Stations






























Interactive Weather Map New forecast layout! Learn more

10-Day Weather Forecast

Advertisements
Track Severe Weather on mobile